createdAt,value
2018-09-02T00:00:34.281Z,3.17
2018-09-02T00:03:04.642Z,2.40
2018-09-02T00:05:34.233Z,2.60
2018-09-02T00:08:03.794Z,2.60
2018-09-02T00:10:40.389Z,2.93
2018-09-02T00:13:09.777Z,2.33
2018-09-02T00:15:39.193Z,2.53
2018-09-02T00:18:08.624Z,2.67
2018-09-02T00:20:39.126Z,3.60
2018-09-02T00:23:08.421Z,2.50
2018-09-02T00:25:37.837Z,2.97
2018-09-02T00:28:07.303Z,2.80
2018-09-02T00:30:38.746Z,2.87
2018-09-02T00:33:08.160Z,2.53
2018-09-02T00:35:37.477Z,2.73
2018-09-02T00:38:06.870Z,3.17
2018-09-02T00:40:57.177Z,2.90
2018-09-02T00:43:26.265Z,2.70
2018-09-02T00:45:55.381Z,3.47
2018-09-02T00:48:24.492Z,3.40
2018-09-02T00:50:59.405Z,2.80
2018-09-02T00:53:28.513Z,2.73
2018-09-02T00:55:57.597Z,2.80
2018-09-02T00:58:26.665Z,3.40
2018-09-02T01:00:55.873Z,2.77
2018-09-02T01:03:24.961Z,2.80
2018-09-02T01:05:53.784Z,3.47
2018-09-02T01:08:22.857Z,3.17
2018-09-02T01:10:53.117Z,4.03
2018-09-02T01:13:22.229Z,3.23
2018-09-02T01:15:51.393Z,3.40
2018-09-02T01:18:20.498Z,3.47
2018-09-02T01:20:59.475Z,2.93
2018-09-02T01:23:28.649Z,3.07
2018-09-02T01:25:57.759Z,3.00
2018-09-02T01:28:26.857Z,3.00
2018-09-02T01:31:07.394Z,3.40
2018-09-02T01:33:36.553Z,3.07
2018-09-02T01:36:06.253Z,3.17
2018-09-02T01:38:35.398Z,3.50
2018-09-02T01:41:18.145Z,3.10
2018-09-02T01:43:47.237Z,3.73
2018-09-02T01:46:16.442Z,3.53
2018-09-02T01:48:45.829Z,3.60
2018-09-02T01:51:15.318Z,3.37
2018-09-02T01:53:44.676Z,3.33
2018-09-02T01:56:14.049Z,3.27
2018-09-02T01:58:43.422Z,3.73
2018-09-02T02:01:20.469Z,3.80
2018-09-02T02:03:49.950Z,3.20
2018-09-02T02:06:19.361Z,3.33
2018-09-02T02:08:48.788Z,3.57
2018-09-02T02:11:28.018Z,3.70
2018-09-02T02:13:57.397Z,3.90
2018-09-02T02:16:26.521Z,3.33
2018-09-02T02:18:55.592Z,3.17
2018-09-02T02:21:24.732Z,3.50
2018-09-02T02:23:53.840Z,3.43
2018-09-02T02:26:22.954Z,3.30
2018-09-02T02:28:52.152Z,3.70
2018-09-02T02:31:30.265Z,3.67
2018-09-02T02:33:59.373Z,3.33
2018-09-02T02:36:28.456Z,3.07
2018-09-02T02:38:57.822Z,3.30
2018-09-02T02:41:28.181Z,3.27
2018-09-02T02:43:57.601Z,3.50
2018-09-02T02:46:27.031Z,3.00
2018-09-02T02:48:56.451Z,3.77
2018-09-02T02:51:27.653Z,2.90
2018-09-02T02:53:56.745Z,3.00
2018-09-02T02:56:25.875Z,3.50
2018-09-02T02:58:54.985Z,3.07
2018-09-02T03:01:24.141Z,3.23
2018-09-02T03:03:53.289Z,3.17
2018-09-02T03:06:22.380Z,3.60
2018-09-02T03:08:51.513Z,3.20
2018-09-02T03:11:48.445Z,2.90
2018-09-02T03:14:17.853Z,2.93
2018-09-02T03:16:47.201Z,3.00
2018-09-02T03:19:16.549Z,2.80
2018-09-02T03:21:46.986Z,3.10
2018-09-02T03:24:16.396Z,3.23
2018-09-02T03:26:45.817Z,3.20
2018-09-02T03:29:15.312Z,2.73
2018-09-02T03:31:44.732Z,3.00
2018-09-02T03:34:14.090Z,2.80
2018-09-02T03:36:43.502Z,3.00
2018-09-02T03:39:12.965Z,3.30
2018-09-02T03:41:49.912Z,2.87
2018-09-02T03:44:19.193Z,2.93
2018-09-02T03:46:48.889Z,3.17
2018-09-02T03:49:18.261Z,2.87
2018-09-02T03:51:51.464Z,3.50
2018-09-02T03:54:20.841Z,3.27
2018-09-02T03:56:50.144Z,3.27
2018-09-02T03:59:19.498Z,2.80
2018-09-02T04:01:51.799Z,3.10
2018-09-02T04:04:21.077Z,2.70
2018-09-02T04:06:50.537Z,3.17
2018-09-02T04:09:19.911Z,2.77
2018-09-02T04:11:49.361Z,2.97
2018-09-02T04:14:18.669Z,3.27
2018-09-02T04:16:48.060Z,3.00
2018-09-02T04:19:17.470Z,2.60
2018-09-02T04:21:46.890Z,3.00
2018-09-02T04:24:16.265Z,2.67
2018-09-02T04:26:45.670Z,2.67
2018-09-02T04:29:15.006Z,2.70
2018-09-02T04:31:46.417Z,2.70
2018-09-02T04:34:15.879Z,2.47
2018-09-02T04:36:45.207Z,2.70
2018-09-02T04:39:14.584Z,3.03
2018-09-02T04:41:44.014Z,2.73
2018-09-02T04:44:13.409Z,2.50
2018-09-02T04:46:42.726Z,2.40
2018-09-02T04:49:12.138Z,2.53
2018-09-02T04:51:43.530Z,2.37
2018-09-02T04:54:12.844Z,2.80
2018-09-02T04:56:42.182Z,2.73
2018-09-02T04:59:11.606Z,2.73
2018-09-02T05:01:43.023Z,2.53
2018-09-02T05:04:12.397Z,2.60
2018-09-02T05:06:43.485Z,2.57
2018-09-02T05:09:12.779Z,2.17
2018-09-02T05:11:43.229Z,2.00
2018-09-02T05:14:12.634Z,2.40
2018-09-02T05:16:41.945Z,2.47
2018-09-02T05:19:11.274Z,2.30
2018-09-02T05:21:42.744Z,1.90
2018-09-02T05:24:12.178Z,1.87
2018-09-02T05:26:41.669Z,2.03
2018-09-02T05:29:11.118Z,2.00
2018-09-02T05:32:10.518Z,2.00
2018-09-02T05:34:39.641Z,1.70
2018-09-02T05:37:08.729Z,2.30
2018-09-02T05:39:37.818Z,1.87
2018-09-02T05:42:08.001Z,1.80
2018-09-02T05:44:37.125Z,2.40
2018-09-02T05:47:06.505Z,2.07
2018-09-02T05:49:35.665Z,2.40
2018-09-02T05:52:09.502Z,2.33
2018-09-02T05:54:38.937Z,2.23
2018-09-02T05:57:08.440Z,2.43
2018-09-02T05:59:37.825Z,2.57
2018-09-02T06:02:08.244Z,2.43
2018-09-02T06:04:37.337Z,2.67
2018-09-02T06:07:06.669Z,2.33
2018-09-02T06:09:36.078Z,2.73
2018-09-02T06:12:06.493Z,2.70
2018-09-02T06:14:35.905Z,2.47
2018-09-02T06:17:05.445Z,2.70
2018-09-02T06:19:34.821Z,2.93
2018-09-02T06:22:11.942Z,2.90
2018-09-02T06:24:41.255Z,3.13
2018-09-02T06:27:10.589Z,3.57
2018-09-02T06:29:39.988Z,3.13
2018-09-02T06:32:09.431Z,2.87
2018-09-02T06:34:38.950Z,2.90
2018-09-02T06:37:08.313Z,3.00
2018-09-02T06:39:37.823Z,3.13
2018-09-02T06:42:11.046Z,2.63
2018-09-02T06:44:40.461Z,3.03
2018-09-02T06:47:09.826Z,3.30
2018-09-02T06:49:39.130Z,7.17
2018-09-02T06:52:16.445Z,3.30
2018-09-02T06:54:45.842Z,3.00
2018-09-02T06:57:15.190Z,2.70
2018-09-02T06:59:44.621Z,3.50
2018-09-02T07:02:15.085Z,3.60
2018-09-02T07:04:44.449Z,3.27
2018-09-02T07:07:13.820Z,3.00
2018-09-02T07:09:43.058Z,3.10
2018-09-02T07:12:20.403Z,3.40
2018-09-02T07:14:49.775Z,3.60
2018-09-02T07:17:19.158Z,3.63
2018-09-02T07:19:49.613Z,3.47
2018-09-02T07:22:20.044Z,3.50
2018-09-02T07:24:49.505Z,3.90
2018-09-02T07:27:18.889Z,3.93
2018-09-02T07:29:48.343Z,3.50
2018-09-02T07:32:28.821Z,3.97
2018-09-02T07:34:58.177Z,3.93
2018-09-02T07:37:27.561Z,4.30
2018-09-02T07:39:57.054Z,5.10
2018-09-02T07:42:26.446Z,3.53
2018-09-02T07:44:55.913Z,3.77
2018-09-02T07:47:25.407Z,3.60
2018-09-02T07:49:54.721Z,3.43
2018-09-02T07:52:39.204Z,3.13
2018-09-02T07:55:08.752Z,3.80
2018-09-02T07:57:38.114Z,3.97
2018-09-02T08:00:10.135Z,3.87
2018-09-02T08:02:40.043Z,3.97
2018-09-02T08:05:09.530Z,4.13
2018-09-02T08:07:38.969Z,3.93
2018-09-02T08:10:09.902Z,4.43
2018-09-02T08:12:40.678Z,4.33
2018-09-02T08:15:09.652Z,3.60
2018-09-02T08:17:39.081Z,4.03
2018-09-02T08:20:16.436Z,4.20
2018-09-02T08:22:45.839Z,3.77
2018-09-02T08:25:15.206Z,4.23
2018-09-02T08:27:44.549Z,4.27
2018-09-02T08:30:14.017Z,4.00
2018-09-02T08:32:43.423Z,4.20
2018-09-02T08:35:12.852Z,3.97
2018-09-02T08:37:42.309Z,4.47
2018-09-02T08:40:13.818Z,4.50
2018-09-02T08:42:43.222Z,4.47
2018-09-02T08:45:12.576Z,4.30
2018-09-02T08:47:41.945Z,4.60
2018-09-02T08:50:11.313Z,4.80
2018-09-02T08:52:40.618Z,4.07
2018-09-02T08:55:10.018Z,4.40
2018-09-02T08:57:39.369Z,4.17
2018-09-02T09:00:13.326Z,4.20
2018-09-02T09:02:42.717Z,4.57
2018-09-02T09:05:12.165Z,5.00
2018-09-02T09:07:41.386Z,4.17
2018-09-02T09:10:10.652Z,4.10
2018-09-02T09:12:40.034Z,3.90
2018-09-02T09:15:09.389Z,3.90
2018-09-02T09:17:38.658Z,3.97
2018-09-02T09:20:17.858Z,4.03
2018-09-02T09:22:47.350Z,4.40
2018-09-02T09:25:16.665Z,4.23
2018-09-02T09:27:45.953Z,4.13
2018-09-02T09:30:16.426Z,4.43
2018-09-02T09:32:45.881Z,3.90
2018-09-02T09:35:15.293Z,4.03
2018-09-02T09:37:44.733Z,3.60
2018-09-02T09:40:16.165Z,3.77
2018-09-02T09:42:45.526Z,4.20
2018-09-02T09:45:14.833Z,3.90
2018-09-02T09:47:44.182Z,3.93
2018-09-02T09:50:13.546Z,4.00
2018-09-02T09:52:45.286Z,3.67
2018-09-02T09:55:14.726Z,3.40
2018-09-02T09:57:44.118Z,3.50
2018-09-02T10:00:15.730Z,3.37
2018-09-02T10:02:45.145Z,3.80
2018-09-02T10:05:14.558Z,4.00
2018-09-02T10:07:43.971Z,3.37
2018-09-02T10:10:13.493Z,3.97
2018-09-02T10:12:42.871Z,3.03
2018-09-02T10:15:12.298Z,3.50
2018-09-02T10:17:41.794Z,3.07
2018-09-02T10:20:11.122Z,3.00
2018-09-02T10:22:40.629Z,3.07
2018-09-02T10:25:09.981Z,3.07
2018-09-02T10:27:39.417Z,3.00
2018-09-02T10:30:08.990Z,2.80
2018-09-02T10:32:38.329Z,3.27
2018-09-02T10:35:07.810Z,3.17
2018-09-02T10:37:37.170Z,2.83
2018-09-02T10:40:17.769Z,2.70
2018-09-02T10:42:47.204Z,2.50
2018-09-02T10:45:16.618Z,2.50
2018-09-02T10:47:46.081Z,2.23
2018-09-02T10:50:16.698Z,2.50
2018-09-02T10:52:46.105Z,2.13
2018-09-02T10:55:15.505Z,2.30
2018-09-02T10:57:44.893Z,2.60
2018-09-02T11:00:14.466Z,2.60
2018-09-02T11:02:43.849Z,2.33
2018-09-02T11:05:13.316Z,2.23
2018-09-02T11:07:42.785Z,2.17
2018-09-02T11:10:12.145Z,1.80
2018-09-02T11:12:41.550Z,2.20
2018-09-02T11:15:10.950Z,1.90
2018-09-02T11:17:40.445Z,1.60
2018-09-02T11:20:13.741Z,1.80
2018-09-02T11:22:43.133Z,1.70
2018-09-02T11:25:12.519Z,1.67
2018-09-02T11:27:41.937Z,1.70
2018-09-02T11:30:11.254Z,1.70
2018-09-02T11:32:40.665Z,1.70
2018-09-02T11:35:10.034Z,1.17
2018-09-02T11:37:39.429Z,1.30
2018-09-02T11:40:26.417Z,1.40
2018-09-02T11:42:55.870Z,1.33
2018-09-02T11:45:25.314Z,1.43
2018-09-02T11:47:54.681Z,1.30
2018-09-02T11:50:24.136Z,1.57
2018-09-02T11:52:53.563Z,1.37
2018-09-02T11:55:23.011Z,1.20
2018-09-02T11:57:52.504Z,1.37
2018-09-02T12:00:24.942Z,1.10
2018-09-02T12:02:54.181Z,1.30
2018-09-02T12:05:23.469Z,1.30
2018-09-02T12:07:52.585Z,1.40
2018-09-02T12:10:24.114Z,1.50
2018-09-02T12:12:53.508Z,1.20
2018-09-02T12:15:22.965Z,1.00
2018-09-02T12:17:52.322Z,1.50
2018-09-02T12:20:36.698Z,1.17
2018-09-02T12:23:06.485Z,1.20
2018-09-02T12:25:35.865Z,1.27
2018-09-02T12:28:05.306Z,1.20
2018-09-02T12:30:47.285Z,1.50
2018-09-02T12:33:16.669Z,1.13
2018-09-02T12:35:46.043Z,1.30
2018-09-02T12:38:15.189Z,1.30
2018-09-02T12:40:45.393Z,1.50
2018-09-02T12:43:14.552Z,1.70
2018-09-02T12:45:50.009Z,1.50
2018-09-02T12:48:19.227Z,1.70
2018-09-02T12:50:57.497Z,1.47
2018-09-02T12:53:26.679Z,1.60
2018-09-02T12:56:00.193Z,1.63
2018-09-02T12:58:29.918Z,2.80
2018-09-02T13:00:59.261Z,2.40
2018-09-02T13:03:28.705Z,1.67
2018-09-02T13:05:58.081Z,1.50
2018-09-02T13:08:27.485Z,1.60
2018-09-02T13:11:00.310Z,1.40
2018-09-02T13:13:29.718Z,1.87
2018-09-02T13:15:59.147Z,1.70
2018-09-02T13:18:28.563Z,1.80
2018-09-02T13:21:30.045Z,1.50
2018-09-02T13:23:59.521Z,2.00
2018-09-02T13:26:30.374Z,1.83
2018-09-02T13:28:59.861Z,1.80
2018-09-02T13:31:34.948Z,1.80
2018-09-02T13:34:04.346Z,1.60
2018-09-02T13:36:33.675Z,1.90
2018-09-02T13:39:03.106Z,2.27
2018-09-02T13:41:45.182Z,2.07
2018-09-02T13:44:14.467Z,2.27
2018-09-02T13:46:43.995Z,1.87
2018-09-02T13:49:13.471Z,1.83
2018-09-02T13:51:43.934Z,1.70
2018-09-02T13:54:13.921Z,1.80
2018-09-02T13:56:43.455Z,1.97
2018-09-02T13:59:12.853Z,1.80
2018-09-02T14:01:47.390Z,2.10
2018-09-02T14:04:16.790Z,2.20
2018-09-02T14:06:46.153Z,2.50
2018-09-02T14:09:15.644Z,2.07
2018-09-02T14:11:46.013Z,1.97
2018-09-02T14:14:15.401Z,1.80
2018-09-02T14:16:44.806Z,1.93
2018-09-02T14:19:14.142Z,1.77
2018-09-02T14:21:43.700Z,2.27
2018-09-02T14:24:14.293Z,1.77
2018-09-02T14:26:44.014Z,1.90
2018-09-02T14:29:13.549Z,2.00
2018-09-02T14:31:52.206Z,2.63
2018-09-02T14:34:21.525Z,6.87
2018-09-02T14:36:51.020Z,13.43
2018-09-02T14:39:20.418Z,11.90
2018-09-02T14:41:57.403Z,80.87
2018-09-02T14:44:26.774Z,119.97
2018-09-02T14:46:56.273Z,17.47
2018-09-02T14:49:25.753Z,4.80
2018-09-02T14:51:56.226Z,2.30
2018-09-02T14:54:25.613Z,2.33
2018-09-02T14:57:02.636Z,2.37
2018-09-02T14:59:31.773Z,2.10
2018-09-02T15:02:08.702Z,2.07
2018-09-02T15:04:37.864Z,2.93
2018-09-02T15:07:07.181Z,4.33
2018-09-02T15:09:36.593Z,3.13
2018-09-02T15:12:15.490Z,4.80
2018-09-02T15:14:44.861Z,5.10
2018-09-02T15:17:13.998Z,3.60
2018-09-02T15:19:43.172Z,10.70
2018-09-02T15:22:14.345Z,10.43
2018-09-02T15:24:43.465Z,5.43
2018-09-02T15:27:12.657Z,2.90
2018-09-02T15:29:41.685Z,3.83
2018-09-02T15:32:29.308Z,2.73
2018-09-02T15:34:58.674Z,4.03
2018-09-02T15:37:28.130Z,2.50
2018-09-02T15:39:58.514Z,3.00
2018-09-02T15:42:27.927Z,3.37
2018-09-02T15:44:57.241Z,4.67
2018-09-02T15:47:26.681Z,4.23
2018-09-02T15:49:56.058Z,3.50
2018-09-02T15:52:26.414Z,5.60
2018-09-02T15:54:55.860Z,5.73
2018-09-02T15:57:25.169Z,3.80
2018-09-02T15:59:54.742Z,4.63
2018-09-02T16:02:25.230Z,4.83
2018-09-02T16:04:54.616Z,6.50
2018-09-02T16:07:29.758Z,6.33
2018-09-02T16:10:00.534Z,9.33
2018-09-02T16:12:30.573Z,14.53
2018-09-02T16:15:00.122Z,30.43
2018-09-02T16:17:29.873Z,27.30
2018-09-02T16:19:59.508Z,20.27
2018-09-02T16:22:28.832Z,17.47
2018-09-02T16:25:07.056Z,9.67
2018-09-02T16:27:36.237Z,17.83
2018-09-02T16:30:05.823Z,5.97
2018-09-02T16:32:34.961Z,7.70
2018-09-02T16:35:04.554Z,6.57
2018-09-02T16:37:33.982Z,7.20
2018-09-02T16:40:03.305Z,5.97
2018-09-02T16:42:32.769Z,6.17
2018-09-02T16:45:02.201Z,6.77
2018-09-02T16:47:31.593Z,4.40
2018-09-02T16:50:00.901Z,3.80
2018-09-02T16:52:30.269Z,3.23
2018-09-02T16:54:59.697Z,3.70
2018-09-02T16:57:29.205Z,4.03
2018-09-02T16:59:58.621Z,2.97
2018-09-02T17:02:28.557Z,3.50
2018-09-02T17:05:02.925Z,3.17
2018-09-02T17:07:32.368Z,3.50
2018-09-02T17:10:01.841Z,3.33
2018-09-02T17:12:31.237Z,3.87
2018-09-02T17:15:01.133Z,4.10
2018-09-02T17:17:30.457Z,3.53
2018-09-02T17:20:00.551Z,3.50
2018-09-02T17:22:29.986Z,3.20
2018-09-02T17:24:59.441Z,3.13
2018-09-02T17:27:28.789Z,3.27
2018-09-02T17:29:58.328Z,3.03
2018-09-02T17:32:28.434Z,3.60
2018-09-02T17:34:57.818Z,3.20
2018-09-02T17:37:27.149Z,2.80
2018-09-02T17:39:56.448Z,3.40
2018-09-02T17:42:26.942Z,10.30
2018-09-02T17:44:56.346Z,3.80
2018-09-02T17:47:25.826Z,3.43
2018-09-02T17:49:55.242Z,4.07
2018-09-02T17:52:25.578Z,3.83
2018-09-02T17:54:54.974Z,4.13
2018-09-02T17:57:24.334Z,4.03
2018-09-02T17:59:53.709Z,4.17
2018-09-02T18:02:23.261Z,4.77
2018-09-02T18:04:52.653Z,4.57
2018-09-02T18:07:22.183Z,5.33
2018-09-02T18:09:51.670Z,4.17
2018-09-02T18:12:22.131Z,6.73
2018-09-02T18:14:51.585Z,6.93
2018-09-02T18:17:20.986Z,5.03
2018-09-02T18:19:50.417Z,4.30
2018-09-02T18:22:21.944Z,5.17
2018-09-02T18:24:51.421Z,4.10
2018-09-02T18:27:26.054Z,4.37
2018-09-02T18:29:57.705Z,4.50
2018-09-02T18:32:29.928Z,5.10
2018-09-02T18:35:00.250Z,4.47
2018-09-02T18:37:29.897Z,5.07
2018-09-02T18:39:59.257Z,6.50
2018-09-02T18:42:28.665Z,5.70
2018-09-02T18:44:58.002Z,3.93
2018-09-02T18:47:27.398Z,4.27
2018-09-02T18:49:56.757Z,4.13
2018-09-02T18:52:27.941Z,4.50
2018-09-02T18:54:57.149Z,4.00
2018-09-02T18:57:26.534Z,4.03
2018-09-02T18:59:55.905Z,4.13
2018-09-02T19:02:42.130Z,4.97
2018-09-02T19:05:11.539Z,4.63
2018-09-02T19:07:41.000Z,4.50
2018-09-02T19:10:10.438Z,4.20
2018-09-02T19:12:39.909Z,4.73
2018-09-02T19:15:09.323Z,5.33
2018-09-02T19:17:38.709Z,5.07
2018-09-02T19:20:08.445Z,4.50
2018-09-02T19:22:37.894Z,5.50
2018-09-02T19:25:07.537Z,4.97
2018-09-02T19:27:36.969Z,5.90
2018-09-02T19:30:07.121Z,5.80
2018-09-02T19:32:36.520Z,5.37
2018-09-02T19:35:05.842Z,5.90
2018-09-02T19:37:35.145Z,5.30
2018-09-02T19:40:04.552Z,4.77
2018-09-02T19:42:33.893Z,5.33
2018-09-02T19:45:03.388Z,5.80
2018-09-02T19:47:32.873Z,5.93
2018-09-02T19:50:02.353Z,5.47
2018-09-02T19:52:31.617Z,5.83
2018-09-02T19:55:00.789Z,5.57
2018-09-02T19:57:29.890Z,5.80
2018-09-02T19:59:59.008Z,5.93
2018-09-02T20:02:28.101Z,7.27
2018-09-02T20:04:57.237Z,6.47
2018-09-02T20:07:26.349Z,6.10
2018-09-02T20:09:55.888Z,6.13
2018-09-02T20:12:25.061Z,6.33
2018-09-02T20:14:54.193Z,6.63
2018-09-02T20:17:23.296Z,6.37
2018-09-02T20:19:52.409Z,6.73
2018-09-02T20:22:24.833Z,7.30
2018-09-02T20:24:53.977Z,6.47
2018-09-02T20:27:23.098Z,7.23
2018-09-02T20:29:52.208Z,6.80
2018-09-02T20:32:21.413Z,6.70
2018-09-02T20:34:50.516Z,7.20
2018-09-02T20:37:19.802Z,7.53
2018-09-02T20:39:49.657Z,7.17
2018-09-02T20:42:23.054Z,7.30
2018-09-02T20:44:52.457Z,7.27
2018-09-02T20:47:21.932Z,7.70
2018-09-02T20:49:51.380Z,7.50
2018-09-02T20:52:36.023Z,7.13
2018-09-02T20:55:06.253Z,7.50
2018-09-02T20:57:35.673Z,7.13
2018-09-02T21:00:05.269Z,8.20
2018-09-02T21:02:34.746Z,11.17
2018-09-02T21:05:04.093Z,9.57
2018-09-02T21:07:33.497Z,9.13
2018-09-02T21:10:02.806Z,8.00
2018-09-02T21:12:32.214Z,7.93
2018-09-02T21:15:01.605Z,8.33
2018-09-02T21:17:30.893Z,8.40
2018-09-02T21:20:00.526Z,8.07
2018-09-02T21:22:29.880Z,8.27
2018-09-02T21:24:59.222Z,7.87
2018-09-02T21:27:28.543Z,8.60
2018-09-02T21:29:57.909Z,8.37
2018-09-02T21:32:27.292Z,7.53
2018-09-02T21:34:56.684Z,8.93
2018-09-02T21:37:25.996Z,7.67
2018-09-02T21:39:55.342Z,7.60
2018-09-02T21:42:24.829Z,8.57
2018-09-02T21:44:54.193Z,8.30
2018-09-02T21:47:23.632Z,7.77
2018-09-02T21:49:52.945Z,8.27
2018-09-02T21:52:27.557Z,8.53
2018-09-02T21:54:56.929Z,8.03
2018-09-02T21:57:26.358Z,8.10
2018-09-02T21:59:55.761Z,8.13
2018-09-02T22:02:27.229Z,9.00
2018-09-02T22:04:56.597Z,9.13
2018-09-02T22:07:26.054Z,8.37
2018-09-02T22:09:55.442Z,8.63
2018-09-02T22:12:24.919Z,8.80
2018-09-02T22:14:54.327Z,9.20
2018-09-02T22:17:23.669Z,8.23
2018-09-02T22:19:53.122Z,9.37
2018-09-02T22:22:36.413Z,9.10
2018-09-02T22:25:06.665Z,9.03
2018-09-02T22:27:36.033Z,8.93
2018-09-02T22:30:06.365Z,8.67
2018-09-02T22:32:35.861Z,8.53
2018-09-02T22:35:05.353Z,9.20
2018-09-02T22:37:34.648Z,8.87
2018-09-02T22:40:04.066Z,10.37
2018-09-02T22:42:33.474Z,9.90
2018-09-02T22:45:02.828Z,9.87
2018-09-02T22:47:32.174Z,9.33
2018-09-02T22:50:01.533Z,10.70
2018-09-02T22:52:31.001Z,10.30
2018-09-02T22:55:00.419Z,10.97
2018-09-02T22:57:29.785Z,11.37
2018-09-02T23:00:00.141Z,11.33
2018-09-02T23:02:29.510Z,12.10
2018-09-02T23:04:59.001Z,11.70
2018-09-02T23:07:28.385Z,12.37
2018-09-02T23:09:57.733Z,11.27
2018-09-02T23:12:27.050Z,12.47
2018-09-02T23:14:56.394Z,12.33
2018-09-02T23:17:25.825Z,13.10
2018-09-02T23:19:55.270Z,12.37
2018-09-02T23:22:26.710Z,12.80
2018-09-02T23:24:56.105Z,12.43
2018-09-02T23:27:25.591Z,12.33
2018-09-02T23:29:55.065Z,12.93
2018-09-02T23:32:25.574Z,12.17
2018-09-02T23:34:54.990Z,12.40
2018-09-02T23:37:24.310Z,12.97
2018-09-02T23:39:53.778Z,12.20
2018-09-02T23:42:23.222Z,11.43
2018-09-02T23:44:52.586Z,12.00
2018-09-02T23:47:21.997Z,12.40
2018-09-02T23:49:51.333Z,12.77
2018-09-02T23:52:22.853Z,12.20
2018-09-02T23:54:52.297Z,12.13
2018-09-02T23:57:21.624Z,12.33
2018-09-02T23:59:51.153Z,12.23
